Time;durP1;ratioP1;P1;durP2;ratioP2;P2;SDS_P1;SDS_P2;PMS_P1;PMS_P2;Temp;Humidity;BMP_temperature;BMP_pressure;BME280_temperature;BME280_humidity;BME280_pressure;Samples;Min_cycle;Max_cycle;Signal;HPM_P1;HPM_P2
2023/11/20 00:00:12;;;;;;;0.90;0.57;;;;;;;10.16;nan;98894.84;7402294;19;20044;-58
2023/11/20 00:02:42;;;;;;;0.10;0.10;;;;;;;10.45;nan;98900.09;7398356;19;20010;-58
2023/11/20 00:05:09;;;;;;;0.93;0.52;;;;;;;10.55;nan;98892.28;7398617;19;20043;-58
2023/11/20 00:07:36;;;;;;;0.10;0.00;;;;;;;10.51;nan;98888.97;7398181;19;20014;-59
2023/11/20 00:10:04;;;;;;;0.43;0.43;;;;;;;10.38;nan;98889.44;7398541;19;20474;-59
2023/11/20 00:12:32;;;;;;;0.10;0.10;;;;;;;9.90;nan;98899.69;7396941;19;20014;-58
2023/11/20 00:14:59;;;;;;;0.10;0.10;;;;;;;9.69;nan;98896.25;7397661;19;20025;-58
2023/11/20 00:17:26;;;;;;;12.77;0.32;;;;;;;9.55;nan;98899.16;7396078;19;20423;-59
2023/11/20 00:19:52;;;;;;;4.22;0.30;;;;;;;9.49;nan;98901.09;7401314;19;20018;-59
2023/11/20 00:22:18;;;;;;;0.10;0.10;;;;;;;9.48;nan;98910.72;7395058;19;20022;-58
2023/11/20 00:24:44;;;;;;;3.30;0.20;;;;;;;9.37;nan;98897.47;7397827;19;20011;-59
2023/11/20 00:27:10;;;;;;;0.10;0.00;;;;;;;9.38;nan;98909.31;7397830;19;20023;-59
2023/11/20 00:29:40;;;;;;;0.10;0.10;;;;;;;8.77;nan;98911.44;7398871;19;20496;-59
2023/11/20 00:32:06;;;;;;;0.63;0.63;;;;;;;10.98;nan;98902.09;7397757;19;20031;-58
2023/11/20 00:34:36;;;;;;;0.45;0.32;;;;;;;11.80;nan;98895.16;7398036;19;20011;-58
2023/11/20 00:37:02;;;;;;;0.80;0.80;;;;;;;13.87;nan;98885.47;7397101;19;20404;-58
2023/11/20 00:39:29;;;;;;;0.20;0.20;;;;;;;14.48;nan;98882.88;7396705;19;20011;-59
2023/11/20 00:41:55;;;;;;;0.10;0.10;;;;;;;14.33;nan;98882.53;7394872;19;20102;-58
2023/11/20 00:44:21;;;;;;;0.65;0.40;;;;;;;14.22;nan;98877.00;7397737;19;20341;-58
2023/11/20 00:46:47;;;;;;;0.10;0.10;;;;;;;14.86;nan;98872.47;7397068;19;20027;-59
2023/11/20 00:49:13;;;;;;;1.08;0.20;;;;;;;14.89;nan;98886.22;7397719;19;20023;-58
2023/11/20 00:51:40;;;;;;;0.20;0.20;;;;;;;14.15;nan;98883.19;7400632;19;20010;-58
2023/11/20 00:54:06;;;;;;;0.10;0.10;;;;;;;11.00;nan;98887.69;7397253;19;20014;-58
2023/11/20 00:56:33;;;;;;;3.63;0.82;;;;;;;13.62;nan;98885.41;7396302;19;20007;-59
2023/11/20 00:58:59;;;;;;;0.10;0.10;;;;;;;14.37;nan;98888.59;7396904;19;20359;-58
2023/11/20 01:01:25;;;;;;;0.10;0.10;;;;;;;14.16;nan;98876.31;7396916;19;20039;-58
2023/11/20 01:03:51;;;;;;;0.10;0.10;;;;;;;11.39;nan;98875.34;7394629;19;20014;-58
2023/11/20 01:06:19;;;;;;;0.20;0.20;;;;;;;12.88;nan;98868.03;7394866;19;20344;-59
2023/11/20 01:08:45;;;;;;;1.23;1.00;;;;;;;13.09;nan;98868.47;7395242;19;20011;-58
2023/11/20 01:11:12;;;;;;;0.65;0.65;;;;;;;9.15;nan;98864.69;7396440;19;20014;-58
2023/11/20 01:13:39;;;;;;;0.32;0.32;;;;;;;8.53;nan;98867.25;7394326;19;20031;-59
2023/11/20 01:16:06;;;;;;;2.85;0.65;;;;;;;8.19;nan;98868.00;7396495;19;20025;-58
2023/11/20 01:18:32;;;;;;;0.10;0.10;;;;;;;8.01;nan;98866.25;7394797;19;20031;-58
2023/11/20 01:20:59;;;;;;;0.70;0.65;;;;;;;7.83;nan;98871.25;7396494;19;20037;-58
2023/11/20 01:23:25;;;;;;;0.10;0.10;;;;;;;7.77;nan;98870.41;7395502;19;20070;-58
2023/11/20 01:25:51;;;;;;;2.00;0.63;;;;;;;7.74;nan;98871.38;7395410;19;20018;-58
2023/11/20 01:28:17;;;;;;;0.20;0.20;;;;;;;7.74;nan;98876.91;7394253;19;20077;-58
2023/11/20 01:30:43;;;;;;;0.25;0.13;;;;;;;8.09;nan;98869.38;7398093;19;20010;-58
2023/11/20 01:33:09;;;;;;;0.10;0.10;;;;;;;11.72;nan;98855.13;7393493;19;20026;-58
2023/11/20 01:35:36;;;;;;;0.10;0.10;;;;;;;12.52;nan;98860.78;7394976;19;20011;-58
2023/11/20 01:38:02;;;;;;;0.35;0.35;;;;;;;12.62;nan;98864.84;7393912;19;20010;-58
2023/11/20 01:40:28;;;;;;;0.10;0.10;;;;;;;8.56;nan;98869.03;7398123;19;20481;-58
2023/11/20 01:42:55;;;;;;;0.10;0.10;;;;;;;12.19;nan;98845.66;7395304;19;20014;-58
2023/11/20 01:45:21;;;;;;;0.10;0.10;;;;;;;12.76;nan;98836.59;7397259;19;20019;-58
2023/11/20 01:47:47;;;;;;;0.10;0.10;;;;;;;12.79;nan;98837.59;7393230;19;20014;-58
2023/11/20 01:50:14;;;;;;;0.10;0.00;;;;;;;12.79;nan;98834.81;7396469;19;20432;-58
2023/11/20 01:52:46;;;;;;;0.95;0.40;;;;;;;12.74;nan;98833.56;7394578;19;20011;-58
2023/11/20 01:55:13;;;;;;;0.10;0.10;;;;;;;12.80;nan;98836.31;7392974;19;20021;-58
2023/11/20 01:57:44;;;;;;;0.40;0.32;;;;;;;12.72;nan;98849.31;7393088;19;20006;-58
2023/11/20 02:00:11;;;;;;;;;;;;;;;11.20;nan;98842.88;7396355;19;20014;-58
2023/11/20 02:02:42;;;;;;;0.63;0.63;;;;;;;9.27;nan;98842.56;7392843;19;19940;-58
2023/11/20 02:05:09;;;;;;;0.10;0.10;;;;;;;8.56;nan;98838.53;7392266;19;20011;-58
2023/11/20 02:07:36;;;;;;;0.10;0.10;;;;;;;8.14;nan;98838.22;7393056;19;20011;-58
2023/11/20 02:10:04;;;;;;;0.10;0.10;;;;;;;8.03;nan;98843.59;7394331;19;20014;-58
2023/11/20 02:12:31;;;;;;;6.70;0.38;;;;;;;8.55;nan;98834.22;7391806;19;20348;-58
2023/11/20 02:14:57;;;;;;;0.43;0.20;;;;;;;8.19;nan;98829.19;7393778;19;20115;-58
2023/11/20 02:17:24;;;;;;;0.10;0.10;;;;;;;8.16;nan;98836.50;7392044;19;20014;-58
2023/11/20 02:19:51;;;;;;;0.10;0.10;;;;;;;8.06;nan;98839.84;7396733;19;20066;-58
2023/11/20 02:22:17;;;;;;;0.65;0.30;;;;;;;8.51;nan;98838.47;7394283;19;20011;-58
2023/11/20 02:24:45;;;;;;;0.55;0.43;;;;;;;8.33;nan;98833.94;7392913;19;20460;-58
2023/11/20 02:27:30;;;;;;;2.05;0.32;;;;;;;8.85;nan;98840.38;7393619;19;20010;-58
2023/11/20 02:29:57;;;;;;;0.30;0.10;;;;;;;9.48;nan;98838.47;7392976;19;20010;-58
2023/11/20 02:32:23;;;;;;;0.10;0.10;;;;;;;9.02;nan;98832.97;7391406;19;20344;-58
2023/11/20 02:34:51;;;;;;;0.43;0.43;;;;;;;8.68;nan;98834.63;7392101;19;20014;-58
2023/11/20 02:37:17;;;;;;;0.10;0.10;;;;;;;8.68;nan;98833.88;7391347;19;20501;-58
2023/11/20 02:39:47;;;;;;;0.10;0.10;;;;;;;8.77;nan;98833.72;7392535;19;20013;-58
2023/11/20 02:42:14;;;;;;;0.17;0.17;;;;;;;8.80;nan;98827.19;7392980;19;20050;-58
2023/11/20 02:44:40;;;;;;;0.20;0.20;;;;;;;8.83;nan;98826.97;7393010;19;20006;-58
2023/11/20 02:47:06;;;;;;;0.82;0.22;;;;;;;8.88;nan;98833.84;7393475;19;20011;-58
2023/11/20 02:49:35;;;;;;;1.40;0.57;;;;;;;8.91;nan;98836.41;7393807;19;20011;-58
2023/11/20 02:52:05;;;;;;;0.13;0.13;;;;;;;9.79;nan;98832.88;7393683;19;20027;-58
2023/11/20 02:54:32;;;;;;;0.10;0.10;;;;;;;9.94;nan;98822.34;7392763;19;20010;-58
2023/11/20 02:57:00;;;;;;;0.20;0.20;;;;;;;9.98;nan;98817.34;7392413;19;20066;-59
2023/11/20 02:59:29;;;;;;;0.10;0.00;;;;;;;10.00;nan;98820.38;7393379;19;20010;-58
2023/11/20 03:01:56;;;;;;;4.13;0.47;;;;;;;10.02;nan;98823.44;7392122;19;20598;-59
2023/11/20 03:04:22;;;;;;;7.80;1.50;;;;;;;10.02;nan;98819.88;7392322;19;20046;-58
2023/11/20 03:06:49;;;;;;;0.10;0.10;;;;;;;9.91;nan;98823.34;7392121;19;20026;-58
2023/11/20 03:09:15;;;;;;;0.35;0.35;;;;;;;9.86;nan;98818.50;7393022;19;20010;-58
2023/11/20 03:11:41;;;;;;;0.28;0.28;;;;;;;9.82;nan;98815.22;7392187;19;20011;-58
2023/11/20 03:14:07;;;;;;;0.35;0.35;;;;;;;9.77;nan;98818.69;7391648;19;20007;-58
2023/11/20 03:16:34;;;;;;;0.68;0.55;;;;;;;9.40;nan;98812.38;7391550;19;20022;-58
2023/11/20 03:19:00;;;;;;;1.27;0.57;;;;;;;9.05;nan;98809.78;7391442;19;20367;-58
2023/11/20 03:21:27;;;;;;;0.20;0.20;;;;;;;8.97;nan;98808.69;7393659;19;20025;-58
2023/11/20 03:23:54;;;;;;;0.45;0.45;;;;;;;9.21;nan;98808.41;7391863;19;20018;-58
2023/11/20 03:26:24;;;;;;;0.85;0.22;;;;;;;9.10;nan;98807.06;7390310;19;20033;-58
2023/11/20 03:28:51;;;;;;;3.97;1.13;;;;;;;9.08;nan;98798.44;7390887;19;20044;-58
2023/11/20 03:31:17;;;;;;;14.63;1.02;;;;;;;9.26;nan;98808.47;7396859;19;20087;-59
2023/11/20 03:33:46;;;;;;;0.20;0.20;;;;;;;9.11;nan;98800.25;7391968;19;20019;-58
2023/11/20 03:36:15;;;;;;;0.10;0.10;;;;;;;9.24;nan;98805.41;7391371;19;20017;-58
2023/11/20 03:38:42;;;;;;;0.10;0.00;;;;;;;9.26;nan;98807.69;7391808;19;20010;-58
2023/11/20 03:41:08;;;;;;;0.10;0.00;;;;;;;9.23;nan;98797.56;7396045;19;20915;-58
2023/11/20 03:43:35;;;;;;;0.10;0.10;;;;;;;9.24;nan;98794.31;7390607;19;20018;-58
2023/11/20 03:46:01;;;;;;;3.83;0.22;;;;;;;9.26;nan;98791.03;7395488;19;20014;-58
2023/11/20 03:48:27;;;;;;;0.10;0.10;;;;;;;9.29;nan;98795.59;7390427;19;20359;-58
2023/11/20 03:50:53;;;;;;;0.17;0.17;;;;;;;9.25;nan;98789.53;7391770;19;20364;-59
2023/11/20 03:53:19;;;;;;;0.10;0.10;;;;;;;9.22;nan;98801.59;7391532;19;20071;-58
2023/11/20 03:55:45;;;;;;;5.15;1.40;;;;;;;9.45;nan;98806.09;7390048;19;20027;-58
2023/11/20 03:58:13;;;;;;;0.10;0.00;;;;;;;9.39;nan;98805.28;7397625;19;20093;-58
2023/11/20 04:00:39;;;;;;;0.10;0.10;;;;;;;9.37;nan;98810.56;7400209;19;20147;-58
2023/11/20 04:03:05;;;;;;;0.10;0.10;;;;;;;9.35;nan;98810.31;7397788;19;20036;-58
2023/11/20 04:05:31;;;;;;;0.10;0.00;;;;;;;9.39;nan;98805.28;7396094;19;20014;-59
2023/11/20 04:07:57;;;;;;;0.57;0.47;;;;;;;9.36;nan;98812.59;7395517;19;20018;-59
2023/11/20 04:10:23;;;;;;;13.10;1.17;;;;;;;9.40;nan;98804.03;7397210;19;20035;-59
2023/11/20 04:12:50;;;;;;;0.10;0.00;;;;;;;9.72;nan;98806.28;7396514;19;20045;-58
2023/11/20 04:15:17;;;;;;;0.85;0.45;;;;;;;9.87;nan;98806.16;7398683;19;20015;-58
2023/11/20 04:17:44;;;;;;;0.17;0.17;;;;;;;11.27;nan;98801.34;7396213;19;20018;-58
2023/11/20 04:20:10;;;;;;;15.90;0.30;;;;;;;11.49;nan;98795.03;7400186;19;20043;-58
2023/11/20 04:22:37;;;;;;;0.40;0.40;;;;;;;10.25;nan;98796.50;7397459;19;20014;-58
2023/11/20 04:25:05;;;;;;;0.35;0.13;;;;;;;9.98;nan;98797.88;7396952;19;20027;-58
2023/11/20 04:27:31;;;;;;;0.32;0.32;;;;;;;9.55;nan;98794.28;7397861;19;20023;-58
2023/11/20 04:29:57;;;;;;;0.98;0.55;;;;;;;11.25;nan;98791.97;7398309;19;20042;-58
2023/11/20 04:32:23;;;;;;;0.10;0.10;;;;;;;9.80;nan;98795.47;7397729;19;20018;-58
2023/11/20 04:34:49;;;;;;;0.30;0.10;;;;;;;9.91;nan;98801.09;7396932;19;20006;-58
2023/11/20 04:37:16;;;;;;;3.42;0.70;;;;;;;10.93;nan;98796.25;7396677;19;20010;-58
2023/11/20 04:39:42;;;;;;;0.30;0.20;;;;;;;11.68;nan;98800.84;7397996;19;20018;-58
2023/11/20 04:42:08;;;;;;;0.50;0.30;;;;;;;10.06;nan;98796.13;7396104;19;20044;-58
2023/11/20 04:44:34;;;;;;;0.35;0.35;;;;;;;10.88;nan;98799.75;7397369;19;20023;-58
2023/11/20 04:47:00;;;;;;;3.80;0.40;;;;;;;9.51;nan;98799.31;7397439;19;20066;-58
2023/11/20 04:49:27;;;;;;;0.10;0.00;;;;;;;9.27;nan;98792.56;7395351;19;20010;-58
2023/11/20 04:51:53;;;;;;;0.10;0.10;;;;;;;11.34;nan;98770.19;7396039;19;20014;-58
2023/11/20 04:54:19;;;;;;;0.10;0.10;;;;;;;9.56;nan;98775.59;7396869;19;20026;-58
2023/11/20 04:56:45;;;;;;;0.10;0.00;;;;;;;9.21;nan;98777.84;7396206;19;20006;-58
2023/11/20 04:59:12;;;;;;;0.28;0.28;;;;;;;9.08;nan;98776.22;7395878;19;20029;-58
2023/11/20 05:01:38;;;;;;;0.10;0.10;;;;;;;9.39;nan;98777.50;7395355;19;20018;-58
2023/11/20 05:04:04;;;;;;;0.10;0.10;;;;;;;8.93;nan;98774.81;7396556;19;20551;-58
2023/11/20 05:06:30;;;;;;;0.47;0.47;;;;;;;8.66;nan;98762.22;7395629;19;20014;-58
2023/11/20 05:08:56;;;;;;;0.10;0.10;;;;;;;8.62;nan;98761.63;7396072;19;20014;-58
2023/11/20 05:11:23;;;;;;;0.10;0.10;;;;;;;8.62;nan;98760.91;7400376;19;20015;-58
2023/11/20 05:13:50;;;;;;;0.10;0.10;;;;;;;8.41;nan;98751.84;7395215;19;20029;-58
2023/11/20 05:16:16;;;;;;;0.40;0.32;;;;;;;9.37;nan;98757.78;7395717;19;20018;-58
2023/11/20 05:18:42;;;;;;;0.10;0.10;;;;;;;8.39;nan;98757.88;7395816;19;20014;-58
2023/11/20 05:21:08;;;;;;;0.10;0.10;;;;;;;8.30;nan;98768.34;7397635;19;20018;-59
2023/11/20 05:23:35;;;;;;;0.20;0.17;;;;;;;8.98;nan;98769.34;7395481;19;20014;-59
2023/11/20 05:26:01;;;;;;;0.10;0.10;;;;;;;8.42;nan;98763.69;7394011;19;20011;-59
2023/11/20 05:28:27;;;;;;;0.73;0.73;;;;;;;8.89;nan;98775.06;7395685;19;20425;-59
2023/11/20 05:30:53;;;;;;;1.00;0.30;;;;;;;8.87;nan;98780.34;7397389;19;20040;-62
2023/11/20 05:33:20;;;;;;;14.30;0.52;;;;;;;9.02;nan;98786.53;7395629;19;20039;-59
2023/11/20 05:35:46;;;;;;;0.10;0.10;;;;;;;8.97;nan;98787.25;7395055;19;20010;-61
2023/11/20 05:38:12;;;;;;;0.10;0.10;;;;;;;9.64;nan;98796.88;7394872;19;20040;-60
2023/11/20 05:40:38;;;;;;;0.10;0.10;;;;;;;8.97;nan;98801.13;7395986;19;20043;-59
2023/11/20 05:43:04;;;;;;;4.47;0.35;;;;;;;12.23;nan;98784.00;7393421;19;20011;-59
2023/11/20 05:45:30;;;;;;;0.15;0.15;;;;;;;12.19;nan;98781.47;7396015;19;20017;-59
2023/11/20 05:47:56;;;;;;;0.68;0.68;;;;;;;20.93;nan;98775.94;7394876;19;20474;-59
2023/11/20 05:50:22;;;;;;;0.10;0.10;;;;;;;24.51;nan;98767.06;7395230;19;20451;-59
2023/11/20 05:52:49;;;;;;;0.13;0.13;;;;;;;25.37;nan;98761.28;7393692;19;20832;-60
2023/11/20 05:55:15;;;;;;;18.50;0.47;;;;;;;25.54;nan;98769.66;7394785;19;20018;-59
2023/11/20 05:57:41;;;;;;;0.10;0.10;;;;;;;25.45;nan;98765.47;7392059;19;20463;-59
2023/11/20 06:00:10;;;;;;;0.10;0.00;;;;;;;25.55;nan;98771.88;7395463;19;20011;-59
2023/11/20 06:02:39;;;;;;;0.10;0.10;;;;;;;24.20;nan;98768.97;7396551;19;20011;-59
2023/11/20 06:05:05;;;;;;;0.10;0.10;;;;;;;22.61;nan;98783.38;7392547;19;20460;-59
2023/11/20 06:07:31;;;;;;;0.15;0.15;;;;;;;24.14;nan;98782.75;7394271;19;20010;-61
2023/11/20 06:09:58;;;;;;;0.68;0.17;;;;;;;25.03;nan;98779.50;7393758;19;20354;-59
2023/11/20 06:12:24;;;;;;;0.10;0.00;;;;;;;25.16;nan;98781.13;7393831;19;20031;-59
2023/11/20 06:14:50;;;;;;;0.20;0.20;;;;;;;23.48;nan;98793.25;7392503;19;20109;-59
2023/11/20 06:17:17;;;;;;;0.65;0.65;;;;;;;24.80;nan;98796.31;7392352;19;20014;-59
2023/11/20 06:19:44;;;;;;;0.17;0.17;;;;;;;14.94;nan;98812.47;7392471;19;20359;-59
2023/11/20 06:22:10;;;;;;;6.07;0.20;;;;;;;10.47;nan;98824.44;7392672;19;20018;-59
2023/11/20 06:24:37;;;;;;;0.15;0.15;;;;;;;9.54;nan;98823.34;7392970;19;20014;-59
2023/11/20 06:27:04;;;;;;;0.10;0.10;;;;;;;8.96;nan;98830.16;7391686;19;20018;-59
2023/11/20 06:29:30;;;;;;;0.10;0.10;;;;;;;17.87;nan;98824.97;7392882;19;20015;-59
2023/11/20 06:31:56;;;;;;;0.20;0.20;;;;;;;20.49;nan;98819.31;7393610;19;20017;-59
2023/11/20 06:34:23;;;;;;;1.05;0.98;;;;;;;21.13;nan;98822.31;7392729;19;20092;-59
2023/11/20 06:36:49;;;;;;;0.10;0.10;;;;;;;21.44;nan;98822.91;7393137;19;20006;-59
2023/11/20 06:39:16;;;;;;;0.20;0.20;;;;;;;24.07;nan;98835.56;7392837;19;20006;-59
2023/11/20 06:41:42;;;;;;;0.20;0.17;;;;;;;24.75;nan;98828.69;7396400;19;20552;-59
2023/11/20 06:44:08;;;;;;;0.28;0.28;;;;;;;25.19;nan;98831.97;7393135;19;20010;-59
2023/11/20 06:46:35;;;;;;;0.28;0.28;;;;;;;25.43;nan;98833.75;7397897;19;20058;-59
2023/11/20 06:49:01;;;;;;;3.78;1.35;;;;;;;25.58;nan;98843.34;7392613;19;20022;-59
2023/11/20 06:51:27;;;;;;;2.25;0.98;;;;;;;25.74;nan;98844.47;7397016;19;20365;-59
2023/11/20 06:53:55;;;;;;;1.88;1.45;;;;;;;25.73;nan;98837.28;7393342;19;20011;-59
2023/11/20 06:56:21;;;;;;;2.88;1.08;;;;;;;25.84;nan;98840.22;7392277;19;20468;-59
2023/11/20 06:58:48;;;;;;;0.95;0.75;;;;;;;25.81;nan;98832.16;7392735;19;20545;-60
2023/11/20 07:01:14;;;;;;;3.92;0.40;;;;;;;26.23;nan;98833.03;7396303;19;20006;-59
2023/11/20 07:03:44;;;;;;;0.10;0.10;;;;;;;26.48;nan;98835.44;7392579;19;20023;-59
2023/11/20 07:06:12;;;;;;;0.10;0.10;;;;;;;26.37;nan;98841.06;7392858;19;20018;-59
2023/11/20 07:08:39;;;;;;;0.28;0.28;;;;;;;26.24;nan;98845.19;7391924;19;20014;-59
2023/11/20 07:11:05;;;;;;;0.20;0.20;;;;;;;26.03;nan;98842.28;7391721;19;20020;-59
2023/11/20 07:13:31;;;;;;;5.57;0.80;;;;;;;26.20;nan;98844.91;7391415;19;20361;-59
2023/11/20 07:15:58;;;;;;;0.40;0.30;;;;;;;26.43;nan;98850.78;7392627;19;20019;-58
2023/11/20 07:18:25;;;;;;;1.55;0.57;;;;;;;26.48;nan;98837.53;7392572;19;20010;-59
2023/11/20 07:20:51;;;;;;;0.15;0.15;;;;;;;26.56;nan;98853.13;7394267;19;20048;-59
2023/11/20 07:23:17;;;;;;;0.30;0.25;;;;;;;26.43;nan;98859.38;7390050;19;20014;-58
2023/11/20 07:25:43;;;;;;;0.52;0.30;;;;;;;26.32;nan;98868.59;7390293;19;20026;-59
2023/11/20 07:28:10;;;;;;;3.67;0.50;;;;;;;26.26;nan;98865.31;7391049;19;20456;-59
2023/11/20 07:30:37;;;;;;;0.73;0.43;;;;;;;26.24;nan;98859.47;7393044;19;20456;-59
2023/11/20 07:33:03;;;;;;;0.28;0.28;;;;;;;26.03;nan;98870.81;7398053;19;20014;-58
2023/11/20 07:35:29;;;;;;;0.25;0.15;;;;;;;25.91;nan;98875.66;7399326;19;20492;-58
2023/11/20 07:37:56;;;;;;;0.15;0.15;;;;;;;25.74;nan;98873.00;7399210;19;20557;-59
2023/11/20 07:40:24;;;;;;;0.40;0.20;;;;;;;26.10;nan;98875.59;7398967;19;20024;-59
2023/11/20 07:42:50;;;;;;;0.22;0.22;;;;;;;26.11;nan;98877.09;7398644;19;20022;-59
2023/11/20 07:45:17;;;;;;;1.13;0.50;;;;;;;26.08;nan;98886.84;7400216;19;20062;-59
2023/11/20 07:47:43;;;;;;;1.73;0.77;;;;;;;26.05;nan;98893.78;7398386;19;20011;-59
2023/11/20 07:50:14;;;;;;;0.20;0.15;;;;;;;18.88;nan;98904.25;7398650;19;20023;-59
2023/11/20 07:52:43;;;;;;;0.10;0.10;;;;;;;16.99;nan;98906.56;7397921;19;20007;-59
2023/11/20 07:55:10;;;;;;;0.13;0.13;;;;;;;22.50;nan;98897.34;7397882;19;20360;-59
2023/11/20 07:57:36;;;;;;;0.30;0.30;;;;;;;25.34;nan;98897.22;7397219;19;20022;-59
2023/11/20 08:00:04;;;;;;;0.17;0.17;;;;;;;26.37;nan;98893.22;7401265;19;20015;-59
2023/11/20 08:02:39;;;;;;;0.10;0.10;;;;;;;27.09;nan;98890.97;7401573;19;20417;-59
2023/11/20 08:05:07;;;;;;;0.50;0.50;;;;;;;27.42;nan;98883.91;7397721;19;20033;-59
2023/11/20 08:07:34;;;;;;;3.45;0.17;;;;;;;25.72;nan;98879.31;7398167;19;20389;-59
2023/11/20 08:10:02;;;;;;;0.10;0.10;;;;;;;17.50;nan;98892.94;7398229;19;20066;-59
2023/11/20 08:12:28;;;;;;;0.15;0.10;;;;;;;23.62;nan;98887.44;7398098;19;20011;-59
2023/11/20 08:14:54;;;;;;;0.35;0.35;;;;;;;25.89;nan;98898.34;7397905;19;20606;-59
2023/11/20 08:17:20;;;;;;;0.20;0.20;;;;;;;24.80;nan;98898.84;7396596;19;20014;-59
2023/11/20 08:19:47;;;;;;;0.45;0.13;;;;;;;17.76;nan;98910.50;7398146;19;20010;-59
2023/11/20 08:22:13;;;;;;;0.52;0.20;;;;;;;24.22;nan;98902.84;7397652;19;20011;-59
2023/11/20 08:24:41;;;;;;;0.10;0.10;;;;;;;25.78;nan;98908.28;7397464;19;20011;-60
2023/11/20 08:27:08;;;;;;;0.40;0.40;;;;;;;26.49;nan;98899.75;7397520;19;20030;-59
2023/11/20 08:29:34;;;;;;;0.10;0.10;;;;;;;26.54;nan;98907.25;7397157;19;20023;-59
2023/11/20 08:32:00;;;;;;;0.10;0.10;;;;;;;26.59;nan;98909.03;7401368;19;20015;-59
2023/11/20 08:34:26;;;;;;;1.20;0.95;;;;;;;26.78;nan;98908.94;7397086;19;20014;-59
2023/11/20 08:36:52;;;;;;;0.10;0.03;;;;;;;26.73;nan;98918.59;7396022;19;20045;-59
2023/11/20 08:39:21;;;;;;;0.40;0.40;;;;;;;27.21;nan;98914.63;7396957;19;20014;-59
2023/11/20 08:41:48;;;;;;;0.10;0.10;;;;;;;27.52;nan;98932.47;7398560;19;20401;-59
2023/11/20 08:44:15;;;;;;;0.30;0.17;;;;;;;22.95;nan;98935.19;7395758;19;20354;-59
2023/11/20 08:46:43;;;;;;;0.10;0.10;;;;;;;26.87;nan;98928.13;7396026;19;20010;-59
2023/11/20 08:49:09;;;;;;;0.20;0.20;;;;;;;26.93;nan;98936.34;7396575;19;20002;-59
2023/11/20 08:51:35;;;;;;;0.35;0.20;;;;;;;23.25;nan;98940.53;7400791;19;20048;-59
2023/11/20 08:54:02;;;;;;;1.45;0.40;;;;;;;20.90;nan;98944.09;7396872;19;20018;-59
2023/11/20 08:56:28;;;;;;;0.10;0.05;;;;;;;17.12;nan;98952.31;7396399;19;20011;-59
2023/11/20 08:58:54;;;;;;;0.20;0.20;;;;;;;16.70;nan;98958.28;7395872;19;20049;-59
2023/11/20 09:01:30;;;;;;;0.10;0.00;;;;;;;16.43;nan;98955.38;7398437;19;20014;-59
2023/11/20 09:03:57;;;;;;;0.52;0.50;;;;;;;15.98;nan;98960.22;7396357;19;20360;-59
2023/11/20 09:06:23;;;;;;;1.23;0.65;;;;;;;14.11;nan;98950.69;7395247;19;20023;-59
2023/11/20 09:08:49;;;;;;;0.63;0.38;;;;;;;12.69;nan;98953.72;7396208;19;20010;-59
2023/11/20 09:11:15;;;;;;;0.45;0.45;;;;;;;10.75;nan;98961.75;7394238;19;20041;-59
2023/11/20 09:13:41;;;;;;;0.20;0.20;;;;;;;10.31;nan;98955.94;7395665;19;20014;-59
2023/11/20 09:16:08;;;;;;;1.67;0.57;;;;;;;10.17;nan;98965.16;7396503;19;20018;-59
2023/11/20 09:18:34;;;;;;;0.10;0.10;;;;;;;11.89;nan;98961.88;7393794;19;20014;-59
2023/11/20 09:21:02;;;;;;;1.05;0.73;;;;;;;11.47;nan;98975.97;7399030;19;20010;-59
2023/11/20 09:23:29;;;;;;;0.28;0.28;;;;;;;10.52;nan;98982.38;7395140;19;20040;-59
2023/11/20 09:25:56;;;;;;;0.90;0.45;;;;;;;9.94;nan;98983.66;7396103;19;20036;-59
2023/11/20 09:28:23;;;;;;;3.70;0.80;;;;;;;10.17;nan;98990.97;7395070;19;20014;-59
2023/11/20 09:30:49;;;;;;;0.10;0.10;;;;;;;12.94;nan;98980.56;7393124;19;20022;-59
2023/11/20 09:33:15;;;;;;;0.45;0.45;;;;;;;19.01;nan;98973.97;7395831;19;20023;-59
2023/11/20 09:35:42;;;;;;;0.22;0.20;;;;;;;21.79;nan;98983.28;7394951;19;20006;-59
2023/11/20 09:38:09;;;;;;;0.10;0.10;;;;;;;25.32;nan;98976.88;7395622;19;20007;-59
2023/11/20 09:40:36;;;;;;;1.83;0.52;;;;;;;12.67;nan;98996.09;7395471;19;20508;-59
2023/11/20 09:43:03;;;;;;;0.10;0.00;;;;;;;11.39;nan;99009.16;7395471;19;20385;-59
2023/11/20 09:45:33;;;;;;;0.10;0.10;;;;;;;14.42;nan;99014.59;7396724;19;20030;-59
2023/11/20 09:48:01;;;;;;;0.63;0.30;;;;;;;15.92;nan;99005.22;7395695;19;20018;-59
2023/11/20 09:50:28;;;;;;;5.97;0.90;;;;;;;16.54;nan;99008.63;7396304;19;20025;-59
2023/11/20 09:52:55;;;;;;;0.10;0.10;;;;;;;24.08;nan;99002.81;7394715;19;20010;-59
2023/11/20 09:55:24;;;;;;;0.10;0.10;;;;;;;21.85;nan;98998.78;7392616;19;20017;-59
2023/11/20 09:57:51;;;;;;;0.50;0.40;;;;;;;18.37;nan;99006.88;7393884;19;20071;-60
2023/11/20 10:00:18;;;;;;;0.00;0.00;;;;;;;17.80;nan;99012.31;7394462;19;20070;-59
2023/11/20 10:02:45;;;;;;;10.93;0.60;;;;;;;18.29;nan;99006.81;7392249;19;20070;-59
2023/11/20 10:05:17;;;;;;;0.70;0.35;;;;;;;17.20;nan;99019.94;7398545;19;20007;-59
2023/11/20 10:07:44;;;;;;;0.17;0.17;;;;;;;16.85;nan;99006.31;7394108;19;20007;-59
2023/11/20 10:10:12;;;;;;;2.70;0.63;;;;;;;16.82;nan;99010.19;7393698;19;20010;-59
2023/11/20 10:12:39;;;;;;;0.47;0.40;;;;;;;15.53;nan;99015.47;7393872;19;20022;-59
2023/11/20 10:15:09;;;;;;;0.55;0.15;;;;;;;17.48;nan;99017.31;7397770;19;20010;-59
2023/11/20 10:17:39;;;;;;;0.13;0.03;;;;;;;19.53;nan;99018.69;7393954;19;20010;-59
2023/11/20 10:20:09;;;;;;;0.10;0.10;;;;;;;19.00;nan;99020.41;7395154;19;20028;-59
2023/11/20 10:22:37;;;;;;;0.95;0.32;;;;;;;18.93;nan;99023.94;7393550;19;20011;-59
2023/11/20 10:25:05;;;;;;;0.20;0.10;;;;;;;17.24;nan;99029.56;7397690;19;20002;-60
2023/11/20 10:27:31;;;;;;;0.40;0.40;;;;;;;17.92;nan;99016.41;7394448;19;20030;-59
2023/11/20 10:29:58;;;;;;;0.40;0.10;;;;;;;20.63;nan;99025.06;7393226;19;20022;-59
2023/11/20 10:32:27;;;;;;;0.20;0.20;;;;;;;23.88;nan;99018.25;7393404;19;20018;-59
2023/11/20 10:35:14;;;;;;;0.73;0.73;;;;;;;22.85;nan;99019.53;7395353;19;20472;-59
2023/11/20 10:38:03;;;;;;;1.23;0.75;;;;;;;22.50;nan;99022.22;7393695;19;20025;-59
2023/11/20 10:40:32;;;;;;;0.00;0.00;;;;;;;26.01;nan;99022.66;7393757;19;20023;-59
2023/11/20 10:42:58;;;;;;;0.20;0.20;;;;;;;28.11;nan;99023.63;7393446;19;20014;-59
2023/11/20 10:45:24;;;;;;;0.20;0.00;;;;;;;28.41;nan;99019.81;7395416;19;20015;-59
2023/11/20 10:47:51;;;;;;;1.05;0.50;;;;;;;28.78;nan;99025.00;7393190;19;20078;-59
2023/11/20 10:50:21;;;;;;;0.20;0.10;;;;;;;29.30;nan;99021.75;7394325;19;20018;-59
2023/11/20 10:52:49;;;;;;;6.00;0.90;;;;;;;29.26;nan;99019.38;7393209;19;20014;-59
2023/11/20 10:55:16;;;;;;;14.13;1.08;;;;;;;27.73;nan;99016.13;7397016;19;20026;-59
2023/11/20 10:57:45;;;;;;;8.20;0.35;;;;;;;27.94;nan;99023.91;7391016;19;20010;-60
2023/11/20 11:00:15;;;;;;;10.40;0.40;;;;;;;25.93;nan;99027.78;7393038;19;20011;-59
2023/11/20 11:02:42;;;;;;;0.85;0.55;;;;;;;25.78;nan;99021.63;7393315;19;20014;-59
2023/11/20 11:05:10;;;;;;;0.47;0.30;;;;;;;34.03;nan;99011.97;7396759;19;20014;-60
2023/11/20 11:07:41;;;;;;;3.40;1.08;;;;;;;22.24;nan;99022.75;7400130;19;20020;-59
2023/11/20 11:10:10;;;;;;;0.90;0.68;;;;;;;18.87;nan;99032.56;7398844;19;20378;-59
2023/11/20 11:12:41;;;;;;;1.08;0.70;;;;;;;14.71;nan;99038.28;7400383;19;20014;-59
2023/11/20 11:15:12;;;;;;;0.65;0.30;;;;;;;20.99;nan;99036.94;7403941;19;20011;-59
2023/11/20 11:17:48;;;;;;;;;;;;;;;20.14;nan;99041.53;7400019;19;20464;-59
2023/11/20 11:20:19;;;;;;;1.75;0.85;;;;;;;32.29;nan;99025.81;7402310;19;19915;-59
2023/11/20 11:22:56;;;;;;;2.22;0.50;;;;;;;33.20;nan;99015.59;7399238;19;20373;-59
2023/11/20 11:25:26;;;;;;;1.13;0.43;;;;;;;16.03;nan;99043.63;7402955;19;20070;-59
2023/11/20 11:27:58;;;;;;;5.60;1.35;;;;;;;16.20;nan;99040.59;7400060;19;20339;-57
2023/11/20 11:30:27;;;;;;;0.55;0.52;;;;;;;21.02;nan;99038.63;7398081;19;20014;-59
2023/11/20 11:33:05;;;;;;;0.85;0.73;;;;;;;25.67;nan;99022.97;7399388;19;20468;-59
2023/11/20 11:35:57;;;;;;;0.43;0.40;;;;;;;16.51;nan;99037.81;7404178;19;20448;-59
2023/11/20 11:38:34;;;;;;;0.50;0.50;;;;;;;33.32;nan;99004.56;7397737;19;20027;-58
2023/11/20 11:41:19;;;;;;;0.98;0.68;;;;;;;35.49;nan;99000.88;7399517;19;20014;-58
2023/11/20 11:44:19;;;;;;;3.65;0.43;;;;;;;42.75;nan;98994.34;7400331;19;20016;-59
2023/11/20 11:46:53;;;;;;;4.80;0.88;;;;;;;23.41;nan;99021.47;7398471;19;20011;-58
2023/11/20 11:49:20;;;;;;;3.30;1.50;;;;;;;19.09;nan;99031.22;7398980;19;20017;-59
2023/11/20 11:51:55;;;;;;;1.67;0.82;;;;;;;15.64;nan;99044.16;7399129;19;20014;-59
2023/11/20 11:54:23;;;;;;;1.20;0.40;;;;;;;13.54;nan;99041.09;7398456;19;20022;-58